sensor_id;sensor_type;location;lat;lon;timestamp;P1;durP1;ratioP1;P2;durP2;ratioP2
48199;SDS011;33990;44.602;10.976;2024-03-23T00:55:15;6.45;;;5.15;;
48199;SDS011;33990;44.602;10.976;2024-03-23T00:57:41;5.93;;;4.90;;
48199;SDS011;33990;44.602;10.976;2024-03-23T01:00:08;6.07;;;5.22;;
48199;SDS011;33990;44.602;10.976;2024-03-23T01:02:36;7.28;;;5.05;;
48199;SDS011;33990;44.602;10.976;2024-03-23T01:05:02;6.00;;;4.93;;
48199;SDS011;33990;44.602;10.976;2024-03-23T01:07:29;5.97;;;4.90;;
48199;SDS011;33990;44.602;10.976;2024-03-23T01:09:55;5.50;;;4.68;;
48199;SDS011;33990;44.602;10.976;2024-03-23T01:12:21;7.40;;;4.80;;
48199;SDS011;33990;44.602;10.976;2024-03-23T01:14:47;6.00;;;4.50;;
48199;SDS011;33990;44.602;10.976;2024-03-23T01:17:14;5.18;;;4.68;;
48199;SDS011;33990;44.602;10.976;2024-03-23T01:19:40;5.88;;;4.63;;
48199;SDS011;33990;44.602;10.976;2024-03-23T01:22:07;6.00;;;4.75;;
48199;SDS011;33990;44.602;10.976;2024-03-23T01:24:34;5.03;;;4.03;;
48199;SDS011;33990;44.602;10.976;2024-03-23T01:27:00;6.38;;;4.25;;
48199;SDS011;33990;44.602;10.976;2024-03-23T01:29:26;5.30;;;4.45;;
48199;SDS011;33990;44.602;10.976;2024-03-23T01:31:52;4.80;;;4.20;;
48199;SDS011;33990;44.602;10.976;2024-03-23T01:34:19;5.53;;;4.90;;
48199;SDS011;33990;44.602;10.976;2024-03-23T01:36:46;4.93;;;4.10;;
48199;SDS011;33990;44.602;10.976;2024-03-23T01:39:13;5.10;;;4.60;;
48199;SDS011;33990;44.602;10.976;2024-03-23T01:41:40;6.15;;;4.85;;
48199;SDS011;33990;44.602;10.976;2024-03-23T01:44:08;5.32;;;4.47;;
48199;SDS011;33990;44.602;10.976;2024-03-23T01:46:35;4.78;;;4.03;;
48199;SDS011;33990;44.602;10.976;2024-03-23T01:49:03;6.75;;;4.70;;
48199;SDS011;33990;44.602;10.976;2024-03-23T01:51:31;5.57;;;4.47;;
48199;SDS011;33990;44.602;10.976;2024-03-23T01:53:58;5.75;;;4.68;;
48199;SDS011;33990;44.602;10.976;2024-03-23T01:56:29;5.97;;;4.60;;
48199;SDS011;33990;44.602;10.976;2024-03-23T01:58:56;6.15;;;5.05;;
48199;SDS011;33990;44.602;10.976;2024-03-23T02:01:22;6.85;;;4.85;;
48199;SDS011;33990;44.602;10.976;2024-03-23T02:03:48;5.38;;;4.80;;
48199;SDS011;33990;44.602;10.976;2024-03-23T02:06:15;5.30;;;4.40;;
48199;SDS011;33990;44.602;10.976;2024-03-23T02:08:41;5.90;;;4.75;;
48199;SDS011;33990;44.602;10.976;2024-03-23T02:11:07;6.63;;;4.57;;
48199;SDS011;33990;44.602;10.976;2024-03-23T02:13:34;5.32;;;4.47;;
48199;SDS011;33990;44.602;10.976;2024-03-23T02:16:00;6.32;;;4.82;;
48199;SDS011;33990;44.602;10.976;2024-03-23T02:18:27;7.00;;;5.07;;
48199;SDS011;33990;44.602;10.976;2024-03-23T02:20:53;5.47;;;4.70;;
48199;SDS011;33990;44.602;10.976;2024-03-23T02:23:19;5.68;;;4.72;;
48199;SDS011;33990;44.602;10.976;2024-03-23T02:25:45;6.05;;;4.78;;
48199;SDS011;33990;44.602;10.976;2024-03-23T02:28:12;4.88;;;4.38;;
48199;SDS011;33990;44.602;10.976;2024-03-23T02:30:38;5.30;;;3.97;;
48199;SDS011;33990;44.602;10.976;2024-03-23T02:33:04;6.95;;;4.50;;
48199;SDS011;33990;44.602;10.976;2024-03-23T02:35:31;5.47;;;4.35;;
48199;SDS011;33990;44.602;10.976;2024-03-23T02:37:57;5.72;;;4.55;;
48199;SDS011;33990;44.602;10.976;2024-03-23T02:40:23;5.75;;;4.78;;
48199;SDS011;33990;44.602;10.976;2024-03-23T02:42:50;5.05;;;4.45;;
48199;SDS011;33990;44.602;10.976;2024-03-23T02:45:17;5.05;;;4.15;;
48199;SDS011;33990;44.602;10.976;2024-03-23T02:47:43;5.55;;;4.30;;
48199;SDS011;33990;44.602;10.976;2024-03-23T02:50:10;5.22;;;4.68;;
48199;SDS011;33990;44.602;10.976;2024-03-23T02:52:36;4.47;;;3.83;;
48199;SDS011;33990;44.602;10.976;2024-03-23T02:55:03;4.82;;;3.58;;
48199;SDS011;33990;44.602;10.976;2024-03-23T02:57:30;5.32;;;4.68;;
48199;SDS011;33990;44.602;10.976;2024-03-23T02:59:57;5.72;;;4.03;;
48199;SDS011;33990;44.602;10.976;2024-03-23T03:02:25;5.05;;;4.03;;
48199;SDS011;33990;44.602;10.976;2024-03-23T03:04:51;5.10;;;3.92;;
48199;SDS011;33990;44.602;10.976;2024-03-23T03:07:17;5.63;;;4.55;;
48199;SDS011;33990;44.602;10.976;2024-03-23T03:09:43;4.82;;;3.88;;
48199;SDS011;33990;44.602;10.976;2024-03-23T03:12:09;5.75;;;4.50;;
48199;SDS011;33990;44.602;10.976;2024-03-23T03:14:36;4.03;;;3.58;;
48199;SDS011;33990;44.602;10.976;2024-03-23T03:17:02;5.40;;;4.05;;
48199;SDS011;33990;44.602;10.976;2024-03-23T03:19:29;4.43;;;3.72;;
48199;SDS011;33990;44.602;10.976;2024-03-23T03:21:55;4.35;;;3.55;;
48199;SDS011;33990;44.602;10.976;2024-03-23T03:24:22;4.47;;;3.35;;
48199;SDS011;33990;44.602;10.976;2024-03-23T03:26:48;5.70;;;4.68;;
48199;SDS011;33990;44.602;10.976;2024-03-23T03:29:15;4.68;;;3.90;;
48199;SDS011;33990;44.602;10.976;2024-03-23T03:31:45;7.18;;;4.55;;
48199;SDS011;33990;44.602;10.976;2024-03-23T03:34:11;5.90;;;3.90;;
48199;SDS011;33990;44.602;10.976;2024-03-23T03:36:37;4.30;;;3.67;;
48199;SDS011;33990;44.602;10.976;2024-03-23T03:39:03;4.55;;;3.90;;
48199;SDS011;33990;44.602;10.976;2024-03-23T03:41:31;5.40;;;4.30;;
48199;SDS011;33990;44.602;10.976;2024-03-23T03:43:57;5.18;;;4.25;;
48199;SDS011;33990;44.602;10.976;2024-03-23T03:46:28;5.38;;;4.38;;
48199;SDS011;33990;44.602;10.976;2024-03-23T03:48:54;4.78;;;3.92;;
48199;SDS011;33990;44.602;10.976;2024-03-23T03:51:20;4.30;;;3.55;;
48199;SDS011;33990;44.602;10.976;2024-03-23T03:53:47;5.03;;;4.05;;
48199;SDS011;33990;44.602;10.976;2024-03-23T03:56:13;4.00;;;3.50;;
48199;SDS011;33990;44.602;10.976;2024-03-23T03:58:39;4.13;;;3.47;;
48199;SDS011;33990;44.602;10.976;2024-03-23T04:01:06;4.07;;;3.53;;
48199;SDS011;33990;44.602;10.976;2024-03-23T04:03:33;4.18;;;3.58;;
48199;SDS011;33990;44.602;10.976;2024-03-23T04:05:59;4.32;;;3.58;;
48199;SDS011;33990;44.602;10.976;2024-03-23T04:08:25;4.15;;;3.40;;
48199;SDS011;33990;44.602;10.976;2024-03-23T04:10:51;3.90;;;3.45;;
48199;SDS011;33990;44.602;10.976;2024-03-23T04:13:17;4.40;;;3.45;;
48199;SDS011;33990;44.602;10.976;2024-03-23T04:15:44;5.22;;;3.85;;
48199;SDS011;33990;44.602;10.976;2024-03-23T04:18:10;5.28;;;3.80;;
48199;SDS011;33990;44.602;10.976;2024-03-23T04:20:36;5.75;;;3.90;;
48199;SDS011;33990;44.602;10.976;2024-03-23T04:23:03;4.30;;;3.10;;
48199;SDS011;33990;44.602;10.976;2024-03-23T04:25:29;4.03;;;3.50;;
48199;SDS011;33990;44.602;10.976;2024-03-23T04:27:55;4.75;;;3.63;;
48199;SDS011;33990;44.602;10.976;2024-03-23T04:30:22;4.28;;;3.30;;
48199;SDS011;33990;44.602;10.976;2024-03-23T04:32:51;3.70;;;2.83;;
48199;SDS011;33990;44.602;10.976;2024-03-23T04:35:17;4.63;;;3.72;;
48199;SDS011;33990;44.602;10.976;2024-03-23T04:37:43;4.45;;;3.38;;
48199;SDS011;33990;44.602;10.976;2024-03-23T04:40:09;4.20;;;3.42;;
48199;SDS011;33990;44.602;10.976;2024-03-23T04:42:37;4.97;;;3.47;;
48199;SDS011;33990;44.602;10.976;2024-03-23T04:45:04;4.85;;;3.10;;
48199;SDS011;33990;44.602;10.976;2024-03-23T04:47:32;4.05;;;3.05;;
48199;SDS011;33990;44.602;10.976;2024-03-23T04:49:58;4.15;;;3.17;;
48199;SDS011;33990;44.602;10.976;2024-03-23T04:52:24;4.43;;;3.28;;
48199;SDS011;33990;44.602;10.976;2024-03-23T04:54:51;4.22;;;3.47;;
48199;SDS011;33990;44.602;10.976;2024-03-23T04:57:17;6.15;;;3.88;;
48199;SDS011;33990;44.602;10.976;2024-03-23T04:59:46;4.40;;;3.45;;
48199;SDS011;33990;44.602;10.976;2024-03-23T05:02:13;6.13;;;4.30;;
48199;SDS011;33990;44.602;10.976;2024-03-23T05:04:41;4.07;;;3.17;;
48199;SDS011;33990;44.602;10.976;2024-03-23T05:07:07;4.40;;;3.22;;
48199;SDS011;33990;44.602;10.976;2024-03-23T05:09:33;3.88;;;3.13;;
48199;SDS011;33990;44.602;10.976;2024-03-23T05:12:00;4.90;;;3.80;;
48199;SDS011;33990;44.602;10.976;2024-03-23T05:14:26;3.60;;;2.75;;
48199;SDS011;33990;44.602;10.976;2024-03-23T05:16:53;4.70;;;3.40;;
48199;SDS011;33990;44.602;10.976;2024-03-23T05:19:20;5.00;;;3.45;;
48199;SDS011;33990;44.602;10.976;2024-03-23T05:21:46;4.13;;;3.40;;
48199;SDS011;33990;44.602;10.976;2024-03-23T05:24:12;7.13;;;3.65;;
48199;SDS011;33990;44.602;10.976;2024-03-23T05:26:38;3.97;;;3.38;;
48199;SDS011;33990;44.602;10.976;2024-03-23T05:29:05;3.90;;;2.80;;
48199;SDS011;33990;44.602;10.976;2024-03-23T05:31:32;3.30;;;2.88;;
48199;SDS011;33990;44.602;10.976;2024-03-23T05:33:59;4.05;;;3.20;;
48199;SDS011;33990;44.602;10.976;2024-03-23T05:36:25;4.00;;;2.95;;
48199;SDS011;33990;44.602;10.976;2024-03-23T05:38:51;5.05;;;3.72;;
48199;SDS011;33990;44.602;10.976;2024-03-23T05:41:18;4.85;;;3.47;;
48199;SDS011;33990;44.602;10.976;2024-03-23T05:43:44;3.50;;;2.60;;
48199;SDS011;33990;44.602;10.976;2024-03-23T05:46:10;4.57;;;3.45;;
48199;SDS011;33990;44.602;10.976;2024-03-23T05:48:36;3.97;;;3.30;;
48199;SDS011;33990;44.602;10.976;2024-03-23T05:51:03;3.80;;;3.20;;
48199;SDS011;33990;44.602;10.976;2024-03-23T05:53:29;4.15;;;2.90;;
48199;SDS011;33990;44.602;10.976;2024-03-23T05:56:02;4.10;;;3.20;;
48199;SDS011;33990;44.602;10.976;2024-03-23T05:58:29;5.22;;;3.78;;
48199;SDS011;33990;44.602;10.976;2024-03-23T06:00:59;3.53;;;2.95;;
48199;SDS011;33990;44.602;10.976;2024-03-23T06:03:27;4.32;;;3.25;;
48199;SDS011;33990;44.602;10.976;2024-03-23T06:05:54;4.03;;;3.20;;
48199;SDS011;33990;44.602;10.976;2024-03-23T06:08:21;4.32;;;3.38;;
48199;SDS011;33990;44.602;10.976;2024-03-23T06:10:48;5.55;;;3.78;;
48199;SDS011;33990;44.602;10.976;2024-03-23T06:13:16;4.47;;;3.75;;
48199;SDS011;33990;44.602;10.976;2024-03-23T06:15:43;4.80;;;3.50;;
48199;SDS011;33990;44.602;10.976;2024-03-23T06:18:09;4.40;;;3.15;;
48199;SDS011;33990;44.602;10.976;2024-03-23T06:20:35;4.85;;;3.17;;
48199;SDS011;33990;44.602;10.976;2024-03-23T06:23:01;3.95;;;3.22;;
48199;SDS011;33990;44.602;10.976;2024-03-23T06:25:29;4.13;;;3.03;;
48199;SDS011;33990;44.602;10.976;2024-03-23T06:27:56;5.20;;;3.63;;
48199;SDS011;33990;44.602;10.976;2024-03-23T06:30:24;4.07;;;2.92;;
48199;SDS011;33990;44.602;10.976;2024-03-23T06:32:52;4.85;;;3.50;;
48199;SDS011;33990;44.602;10.976;2024-03-23T06:35:19;4.95;;;3.30;;
48199;SDS011;33990;44.602;10.976;2024-03-23T06:37:45;4.05;;;3.13;;
48199;SDS011;33990;44.602;10.976;2024-03-23T06:40:12;3.80;;;3.03;;
48199;SDS011;33990;44.602;10.976;2024-03-23T06:42:38;5.15;;;3.55;;
48199;SDS011;33990;44.602;10.976;2024-03-23T06:45:05;4.18;;;3.45;;
48199;SDS011;33990;44.602;10.976;2024-03-23T06:47:32;5.72;;;3.70;;
48199;SDS011;33990;44.602;10.976;2024-03-23T06:50:02;3.58;;;3.22;;
48199;SDS011;33990;44.602;10.976;2024-03-23T06:52:29;4.85;;;3.55;;
48199;SDS011;33990;44.602;10.976;2024-03-23T06:54:56;5.18;;;3.83;;
48199;SDS011;33990;44.602;10.976;2024-03-23T06:57:23;4.47;;;3.38;;
48199;SDS011;33990;44.602;10.976;2024-03-23T06:59:50;4.38;;;3.20;;
48199;SDS011;33990;44.602;10.976;2024-03-23T07:02:16;4.22;;;3.28;;
48199;SDS011;33990;44.602;10.976;2024-03-23T07:04:42;5.28;;;3.13;;
48199;SDS011;33990;44.602;10.976;2024-03-23T07:07:09;4.95;;;3.47;;
48199;SDS011;33990;44.602;10.976;2024-03-23T07:09:35;3.63;;;3.08;;
48199;SDS011;33990;44.602;10.976;2024-03-23T07:12:03;4.53;;;3.67;;
48199;SDS011;33990;44.602;10.976;2024-03-23T07:14:30;4.85;;;3.78;;
48199;SDS011;33990;44.602;10.976;2024-03-23T07:16:56;4.25;;;3.35;;
48199;SDS011;33990;44.602;10.976;2024-03-23T07:19:23;4.63;;;3.30;;
48199;SDS011;33990;44.602;10.976;2024-03-23T07:21:50;3.78;;;2.92;;
48199;SDS011;33990;44.602;10.976;2024-03-23T07:24:16;4.05;;;3.28;;
48199;SDS011;33990;44.602;10.976;2024-03-23T07:26:43;4.97;;;3.50;;
48199;SDS011;33990;44.602;10.976;2024-03-23T07:29:09;4.35;;;3.22;;
48199;SDS011;33990;44.602;10.976;2024-03-23T07:31:36;4.65;;;2.85;;
48199;SDS011;33990;44.602;10.976;2024-03-23T07:34:02;4.40;;;2.85;;
48199;SDS011;33990;44.602;10.976;2024-03-23T07:36:28;4.03;;;3.08;;
48199;SDS011;33990;44.602;10.976;2024-03-23T07:38:54;4.30;;;3.22;;
48199;SDS011;33990;44.602;10.976;2024-03-23T07:41:21;4.10;;;3.00;;
48199;SDS011;33990;44.602;10.976;2024-03-23T07:43:47;3.92;;;3.13;;
48199;SDS011;33990;44.602;10.976;2024-03-23T07:46:15;4.10;;;3.08;;
48199;SDS011;33990;44.602;10.976;2024-03-23T07:48:41;4.45;;;3.17;;
48199;SDS011;33990;44.602;10.976;2024-03-23T07:51:09;4.70;;;2.95;;
48199;SDS011;33990;44.602;10.976;2024-03-23T07:53:37;3.80;;;2.88;;
48199;SDS011;33990;44.602;10.976;2024-03-23T07:58:34;4.13;;;3.17;;
48199;SDS011;33990;44.602;10.976;2024-03-23T08:01:04;3.45;;;2.83;;
48199;SDS011;33990;44.602;10.976;2024-03-23T08:03:57;4.65;;;3.10;;
48199;SDS011;33990;44.602;10.976;2024-03-23T08:06:23;3.92;;;3.17;;
48199;SDS011;33990;44.602;10.976;2024-03-23T08:08:50;4.80;;;3.47;;
48199;SDS011;33990;44.602;10.976;2024-03-23T08:11:25;5.03;;;3.50;;
48199;SDS011;33990;44.602;10.976;2024-03-23T08:13:56;4.57;;;3.28;;
48199;SDS011;33990;44.602;10.976;2024-03-23T08:16:23;4.03;;;2.97;;
48199;SDS011;33990;44.602;10.976;2024-03-23T08:18:53;4.72;;;3.33;;
48199;SDS011;33990;44.602;10.976;2024-03-23T08:21:21;4.43;;;3.47;;
48199;SDS011;33990;44.602;10.976;2024-03-23T08:23:48;4.20;;;2.97;;
48199;SDS011;33990;44.602;10.976;2024-03-23T08:26:15;3.72;;;3.00;;
48199;SDS011;33990;44.602;10.976;2024-03-23T08:28:43;5.05;;;3.30;;
48199;SDS011;33990;44.602;10.976;2024-03-23T08:31:10;3.92;;;3.10;;
48199;SDS011;33990;44.602;10.976;2024-03-23T08:33:38;5.72;;;3.97;;
48199;SDS011;33990;44.602;10.976;2024-03-23T08:36:05;6.05;;;4.55;;
48199;SDS011;33990;44.602;10.976;2024-03-23T08:38:33;6.63;;;4.78;;
48199;SDS011;33990;44.602;10.976;2024-03-23T08:41:03;5.65;;;4.70;;
48199;SDS011;33990;44.602;10.976;2024-03-23T08:43:35;6.63;;;4.45;;
48199;SDS011;33990;44.602;10.976;2024-03-23T08:46:10;6.30;;;4.78;;
48199;SDS011;33990;44.602;10.976;2024-03-23T08:48:40;4.70;;;3.58;;
48199;SDS011;33990;44.602;10.976;2024-03-23T08:51:10;5.28;;;4.20;;
48199;SDS011;33990;44.602;10.976;2024-03-23T08:53:37;6.78;;;4.35;;
48199;SDS011;33990;44.602;10.976;2024-03-23T08:56:04;6.95;;;4.18;;
48199;SDS011;33990;44.602;10.976;2024-03-23T08:58:35;5.57;;;3.63;;
48199;SDS011;33990;44.602;10.976;2024-03-23T09:01:11;5.63;;;3.85;;
48199;SDS011;33990;44.602;10.976;2024-03-23T09:03:39;9.38;;;4.93;;
48199;SDS011;33990;44.602;10.976;2024-03-23T09:06:09;6.30;;;4.13;;
48199;SDS011;33990;44.602;10.976;2024-03-23T09:08:37;6.57;;;4.07;;
48199;SDS011;33990;44.602;10.976;2024-03-23T09:11:04;4.75;;;3.42;;
48199;SDS011;33990;44.602;10.976;2024-03-23T09:13:35;5.82;;;3.58;;
48199;SDS011;33990;44.602;10.976;2024-03-23T09:16:02;6.22;;;3.75;;
48199;SDS011;33990;44.602;10.976;2024-03-23T09:18:32;5.60;;;4.00;;
48199;SDS011;33990;44.602;10.976;2024-03-23T09:21:01;6.90;;;3.90;;
48199;SDS011;33990;44.602;10.976;2024-03-23T09:23:28;7.78;;;4.15;;
48199;SDS011;33990;44.602;10.976;2024-03-23T09:25:54;5.22;;;3.58;;
48199;SDS011;33990;44.602;10.976;2024-03-23T09:28:20;5.43;;;3.70;;
48199;SDS011;33990;44.602;10.976;2024-03-23T09:30:47;4.53;;;3.35;;
48199;SDS011;33990;44.602;10.976;2024-03-23T09:33:14;4.38;;;3.55;;
48199;SDS011;33990;44.602;10.976;2024-03-23T09:35:40;5.28;;;3.83;;
48199;SDS011;33990;44.602;10.976;2024-03-23T09:38:08;4.85;;;3.60;;
48199;SDS011;33990;44.602;10.976;2024-03-23T09:40:39;4.25;;;3.20;;
48199;SDS011;33990;44.602;10.976;2024-03-23T09:43:07;4.57;;;2.65;;
48199;SDS011;33990;44.602;10.976;2024-03-23T09:45:35;6.45;;;3.47;;
48199;SDS011;33990;44.602;10.976;2024-03-23T09:48:04;4.18;;;2.65;;
48199;SDS011;33990;44.602;10.976;2024-03-23T09:50:32;5.35;;;3.15;;
48199;SDS011;33990;44.602;10.976;2024-03-23T09:52:58;5.15;;;2.95;;
48199;SDS011;33990;44.602;10.976;2024-03-23T09:55:25;3.70;;;2.85;;
48199;SDS011;33990;44.602;10.976;2024-03-23T09:57:51;4.47;;;3.05;;
48199;SDS011;33990;44.602;10.976;2024-03-23T10:00:17;3.58;;;2.67;;
48199;SDS011;33990;44.602;10.976;2024-03-23T10:02:45;4.07;;;2.95;;
48199;SDS011;33990;44.602;10.976;2024-03-23T10:05:21;4.32;;;3.28;;
48199;SDS011;33990;44.602;10.976;2024-03-23T10:07:49;4.55;;;2.80;;
48199;SDS011;33990;44.602;10.976;2024-03-23T10:10:18;4.57;;;3.00;;
48199;SDS011;33990;44.602;10.976;2024-03-23T10:12:45;4.88;;;2.88;;
48199;SDS011;33990;44.602;10.976;2024-03-23T10:15:20;3.53;;;2.55;;
48199;SDS011;33990;44.602;10.976;2024-03-23T10:17:47;4.32;;;2.72;;
48199;SDS011;33990;44.602;10.976;2024-03-23T10:20:21;3.78;;;2.83;;
48199;SDS011;33990;44.602;10.976;2024-03-23T10:22:51;3.85;;;2.88;;
48199;SDS011;33990;44.602;10.976;2024-03-23T10:25:18;4.10;;;2.72;;
48199;SDS011;33990;44.602;10.976;2024-03-23T10:27:58;3.95;;;2.92;;
48199;SDS011;33990;44.602;10.976;2024-03-23T10:30:28;3.67;;;2.72;;
48199;SDS011;33990;44.602;10.976;2024-03-23T10:33:10;3.35;;;2.55;;
48199;SDS011;33990;44.602;10.976;2024-03-23T10:35:37;3.78;;;3.03;;
48199;SDS011;33990;44.602;10.976;2024-03-23T10:38:04;3.75;;;2.85;;
48199;SDS011;33990;44.602;10.976;2024-03-23T10:40:36;3.88;;;2.85;;
48199;SDS011;33990;44.602;10.976;2024-03-23T10:43:03;3.90;;;3.17;;
48199;SDS011;33990;44.602;10.976;2024-03-23T10:45:30;3.92;;;2.80;;
48199;SDS011;33990;44.602;10.976;2024-03-23T10:47:56;3.78;;;2.65;;
48199;SDS011;33990;44.602;10.976;2024-03-23T10:50:23;3.30;;;2.45;;
48199;SDS011;33990;44.602;10.976;2024-03-23T10:52:49;3.60;;;2.70;;
48199;SDS011;33990;44.602;10.976;2024-03-23T10:55:19;3.83;;;2.67;;
48199;SDS011;33990;44.602;10.976;2024-03-23T10:57:52;3.30;;;2.35;;
48199;SDS011;33990;44.602;10.976;2024-03-23T11:00:20;3.30;;;2.75;;
48199;SDS011;33990;44.602;10.976;2024-03-23T11:02:48;4.05;;;3.08;;
48199;SDS011;33990;44.602;10.976;2024-03-23T11:05:27;3.92;;;2.80;;
48199;SDS011;33990;44.602;10.976;2024-03-23T11:07:55;4.18;;;3.03;;
48199;SDS011;33990;44.602;10.976;2024-03-23T11:10:28;4.00;;;2.90;;
48199;SDS011;33990;44.602;10.976;2024-03-23T11:12:56;4.68;;;2.85;;
48199;SDS011;33990;44.602;10.976;2024-03-23T11:15:23;4.32;;;2.85;;
48199;SDS011;33990;44.602;10.976;2024-03-23T11:18:03;3.80;;;2.83;;
48199;SDS011;33990;44.602;10.976;2024-03-23T11:20:36;5.60;;;3.03;;
48199;SDS011;33990;44.602;10.976;2024-03-23T11:23:04;3.90;;;3.00;;
48199;SDS011;33990;44.602;10.976;2024-03-23T11:25:30;4.20;;;3.03;;
48199;SDS011;33990;44.602;10.976;2024-03-23T11:27:57;3.97;;;2.78;;
48199;SDS011;33990;44.602;10.976;2024-03-23T11:30:35;4.38;;;3.00;;
48199;SDS011;33990;44.602;10.976;2024-03-23T11:33:03;5.78;;;3.03;;
48199;SDS011;33990;44.602;10.976;2024-03-23T11:38:18;4.38;;;2.65;;
48199;SDS011;33990;44.602;10.976;2024-03-23T11:40:46;3.85;;;2.33;;
48199;SDS011;33990;44.602;10.976;2024-03-23T11:43:19;4.22;;;2.42;;
48199;SDS011;33990;44.602;10.976;2024-03-23T11:48:14;4.07;;;2.30;;
48199;SDS011;33990;44.602;10.976;2024-03-23T11:50:44;3.60;;;2.80;;
48199;SDS011;33990;44.602;10.976;2024-03-23T11:58:07;3.70;;;2.38;;
48199;SDS011;33990;44.602;10.976;2024-03-23T12:00:34;2.88;;;2.45;;
48199;SDS011;33990;44.602;10.976;2024-03-23T12:03:01;3.20;;;1.92;;
48199;SDS011;33990;44.602;10.976;2024-03-23T12:05:28;3.45;;;2.45;;
48199;SDS011;33990;44.602;10.976;2024-03-23T12:07:55;3.33;;;2.40;;
48199;SDS011;33990;44.602;10.976;2024-03-23T12:10:41;4.53;;;2.50;;
48199;SDS011;33990;44.602;10.976;2024-03-23T12:13:07;2.88;;;2.00;;
48199;SDS011;33990;44.602;10.976;2024-03-23T12:15:33;4.53;;;2.42;;
48199;SDS011;33990;44.602;10.976;2024-03-23T12:18:06;3.78;;;2.35;;
48199;SDS011;33990;44.602;10.976;2024-03-23T12:20:33;3.40;;;2.53;;
48199;SDS011;33990;44.602;10.976;2024-03-23T12:23:06;3.80;;;2.53;;
48199;SDS011;33990;44.602;10.976;2024-03-23T12:25:34;3.78;;;2.20;;
48199;SDS011;33990;44.602;10.976;2024-03-23T12:28:01;3.88;;;2.45;;
48199;SDS011;33990;44.602;10.976;2024-03-23T12:30:28;3.05;;;2.28;;
48199;SDS011;33990;44.602;10.976;2024-03-23T12:32:54;3.80;;;2.30;;
48199;SDS011;33990;44.602;10.976;2024-03-23T12:35:21;4.53;;;2.67;;
48199;SDS011;33990;44.602;10.976;2024-03-23T12:37:47;4.05;;;2.50;;
48199;SDS011;33990;44.602;10.976;2024-03-23T12:40:13;3.78;;;2.53;;
48199;SDS011;33990;44.602;10.976;2024-03-23T12:42:39;3.20;;;2.20;;
48199;SDS011;33990;44.602;10.976;2024-03-23T12:45:06;2.88;;;2.00;;
48199;SDS011;33990;44.602;10.976;2024-03-23T12:47:32;3.08;;;2.33;;
48199;SDS011;33990;44.602;10.976;2024-03-23T12:49:59;3.47;;;2.50;;
48199;SDS011;33990;44.602;10.976;2024-03-23T12:52:25;2.85;;;2.03;;
48199;SDS011;33990;44.602;10.976;2024-03-23T12:54:55;3.38;;;2.20;;
48199;SDS011;33990;44.602;10.976;2024-03-23T12:57:22;3.38;;;2.40;;
48199;SDS011;33990;44.602;10.976;2024-03-23T12:59:50;3.40;;;2.20;;
48199;SDS011;33990;44.602;10.976;2024-03-23T13:02:20;4.15;;;2.75;;
48199;SDS011;33990;44.602;10.976;2024-03-23T13:04:49;2.83;;;1.85;;
48199;SDS011;33990;44.602;10.976;2024-03-23T13:07:16;3.55;;;2.10;;
48199;SDS011;33990;44.602;10.976;2024-03-23T13:09:43;3.00;;;2.30;;
48199;SDS011;33990;44.602;10.976;2024-03-23T13:12:10;3.65;;;2.10;;
48199;SDS011;33990;44.602;10.976;2024-03-23T13:14:39;3.75;;;2.00;;
48199;SDS011;33990;44.602;10.976;2024-03-23T13:17:06;3.63;;;2.40;;
48199;SDS011;33990;44.602;10.976;2024-03-23T13:19:33;3.17;;;2.42;;
48199;SDS011;33990;44.602;10.976;2024-03-23T13:22:00;3.95;;;2.53;;
48199;SDS011;33990;44.602;10.976;2024-03-23T13:24:27;3.25;;;2.20;;
48199;SDS011;33990;44.602;10.976;2024-03-23T13:26:54;3.15;;;2.08;;
48199;SDS011;33990;44.602;10.976;2024-03-23T13:29:21;4.05;;;2.53;;
48199;SDS011;33990;44.602;10.976;2024-03-23T13:31:49;4.53;;;2.53;;
48199;SDS011;33990;44.602;10.976;2024-03-23T13:34:16;3.47;;;2.70;;
48199;SDS011;33990;44.602;10.976;2024-03-23T13:36:43;3.28;;;2.55;;
48199;SDS011;33990;44.602;10.976;2024-03-23T13:39:10;3.72;;;2.35;;
48199;SDS011;33990;44.602;10.976;2024-03-23T13:41:40;4.82;;;2.47;;
48199;SDS011;33990;44.602;10.976;2024-03-23T13:44:08;5.28;;;2.40;;
48199;SDS011;33990;44.602;10.976;2024-03-23T13:46:39;3.80;;;2.50;;
48199;SDS011;33990;44.602;10.976;2024-03-23T13:49:06;3.22;;;2.22;;
48199;SDS011;33990;44.602;10.976;2024-03-23T13:51:32;3.60;;;2.70;;
48199;SDS011;33990;44.602;10.976;2024-03-23T13:53:59;3.80;;;2.85;;
48199;SDS011;33990;44.602;10.976;2024-03-23T13:56:28;3.65;;;2.50;;
48199;SDS011;33990;44.602;10.976;2024-03-23T13:58:55;3.13;;;2.33;;
48199;SDS011;33990;44.602;10.976;2024-03-23T14:01:22;4.10;;;2.42;;
48199;SDS011;33990;44.602;10.976;2024-03-23T14:03:48;3.72;;;2.42;;
48199;SDS011;33990;44.602;10.976;2024-03-23T14:06:15;3.28;;;2.30;;
48199;SDS011;33990;44.602;10.976;2024-03-23T14:08:41;3.33;;;2.20;;
48199;SDS011;33990;44.602;10.976;2024-03-23T14:11:09;3.20;;;2.40;;
48199;SDS011;33990;44.602;10.976;2024-03-23T14:13:36;3.60;;;2.50;;
48199;SDS011;33990;44.602;10.976;2024-03-23T14:16:03;5.05;;;2.58;;
48199;SDS011;33990;44.602;10.976;2024-03-23T14:18:30;2.90;;;2.05;;
48199;SDS011;33990;44.602;10.976;2024-03-23T14:20:56;3.03;;;2.25;;
48199;SDS011;33990;44.602;10.976;2024-03-23T14:23:25;3.70;;;2.25;;
48199;SDS011;33990;44.602;10.976;2024-03-23T14:26:00;3.42;;;2.15;;
48199;SDS011;33990;44.602;10.976;2024-03-23T14:28:26;3.05;;;1.95;;
48199;SDS011;33990;44.602;10.976;2024-03-23T14:30:56;3.38;;;2.42;;
48199;SDS011;33990;44.602;10.976;2024-03-23T14:33:22;2.63;;;1.92;;
48199;SDS011;33990;44.602;10.976;2024-03-23T14:35:53;3.33;;;2.50;;
48199;SDS011;33990;44.602;10.976;2024-03-23T14:38:22;3.10;;;2.25;;
48199;SDS011;33990;44.602;10.976;2024-03-23T14:40:49;2.90;;;2.10;;
48199;SDS011;33990;44.602;10.976;2024-03-23T14:43:18;2.90;;;2.15;;
48199;SDS011;33990;44.602;10.976;2024-03-23T14:48:38;3.67;;;2.53;;
48199;SDS011;33990;44.602;10.976;2024-03-23T14:51:05;3.63;;;2.10;;
48199;SDS011;33990;44.602;10.976;2024-03-23T14:53:32;3.97;;;2.40;;
48199;SDS011;33990;44.602;10.976;2024-03-23T14:55:59;2.85;;;1.95;;
48199;SDS011;33990;44.602;10.976;2024-03-23T14:58:27;4.05;;;2.47;;
48199;SDS011;33990;44.602;10.976;2024-03-23T15:00:59;3.63;;;2.33;;
48199;SDS011;33990;44.602;10.976;2024-03-23T15:03:26;4.00;;;2.40;;
48199;SDS011;33990;44.602;10.976;2024-03-23T15:05:56;3.22;;;1.80;;
48199;SDS011;33990;44.602;10.976;2024-03-23T15:08:23;3.78;;;2.40;;
48199;SDS011;33990;44.602;10.976;2024-03-23T15:10:50;3.42;;;2.30;;
48199;SDS011;33990;44.602;10.976;2024-03-23T15:13:16;3.70;;;2.30;;
48199;SDS011;33990;44.602;10.976;2024-03-23T15:15:43;3.00;;;1.98;;
48199;SDS011;33990;44.602;10.976;2024-03-23T15:18:11;3.28;;;2.35;;
48199;SDS011;33990;44.602;10.976;2024-03-23T15:20:39;2.90;;;1.85;;
48199;SDS011;33990;44.602;10.976;2024-03-23T15:23:05;3.28;;;2.00;;
48199;SDS011;33990;44.602;10.976;2024-03-23T15:25:31;2.78;;;1.85;;
48199;SDS011;33990;44.602;10.976;2024-03-23T15:27:58;3.10;;;2.00;;
48199;SDS011;33990;44.602;10.976;2024-03-23T15:30:26;3.08;;;1.85;;
48199;SDS011;33990;44.602;10.976;2024-03-23T15:32:52;2.97;;;2.15;;
48199;SDS011;33990;44.602;10.976;2024-03-23T15:35:19;2.50;;;1.55;;
48199;SDS011;33990;44.602;10.976;2024-03-23T15:37:49;3.28;;;1.73;;
48199;SDS011;33990;44.602;10.976;2024-03-23T15:40:16;3.05;;;1.90;;
48199;SDS011;33990;44.602;10.976;2024-03-23T15:42:42;3.70;;;1.88;;
48199;SDS011;33990;44.602;10.976;2024-03-23T15:45:08;2.78;;;1.83;;